createdAt,value
2023-03-13T00:01:29.967Z,16.45
2023-03-13T00:03:57.396Z,18.52
2023-03-13T00:06:34.647Z,17.25
2023-03-13T00:09:04.314Z,20.15
2023-03-13T00:11:32.517Z,16.17
2023-03-13T00:14:02.541Z,18.60
2023-03-13T00:16:32.416Z,17.30
2023-03-13T00:18:59.880Z,18.58
2023-03-13T00:21:30.523Z,15.40
2023-03-13T00:24:00.381Z,19.80
2023-03-13T00:26:28.748Z,19.55
2023-03-13T00:28:56.018Z,17.88
2023-03-13T00:31:27.680Z,20.38
2023-03-13T00:34:00.708Z,21.88
2023-03-13T00:36:32.153Z,13.25
2023-03-13T00:39:00.299Z,12.80
2023-03-13T00:41:31.514Z,17.67
2023-03-13T00:43:59.668Z,17.30
2023-03-13T00:46:30.002Z,21.15
2023-03-13T00:48:57.554Z,17.95
2023-03-13T00:51:27.043Z,12.95
2023-03-13T00:53:56.226Z,21.83
2023-03-13T00:56:23.405Z,15.20
2023-03-13T00:58:51.266Z,18.85
2023-03-13T01:01:29.193Z,22.23
2023-03-13T01:04:01.112Z,17.92
2023-03-13T01:06:34.162Z,22.83
2023-03-13T01:09:03.791Z,17.63
2023-03-13T01:11:35.958Z,20.75
2023-03-13T01:14:08.548Z,18.65
2023-03-13T01:16:37.648Z,26.70
2023-03-13T01:19:12.926Z,18.02
2023-03-13T01:21:42.388Z,12.43
2023-03-13T01:24:09.879Z,15.60
2023-03-13T01:26:36.840Z,19.85
2023-03-13T01:29:04.386Z,25.63
2023-03-13T01:31:36.209Z,23.05
2023-03-13T01:34:06.724Z,18.95
2023-03-13T01:36:36.805Z,23.52
2023-03-13T01:39:05.115Z,20.50
2023-03-13T01:41:32.546Z,20.63
2023-03-13T01:44:00.157Z,19.42
2023-03-13T01:46:32.840Z,22.63
2023-03-13T01:49:27.565Z,17.00
2023-03-13T01:52:07.447Z,21.02
2023-03-13T01:54:48.247Z,17.85
2023-03-13T01:57:30.971Z,15.27
2023-03-13T02:00:20.035Z,19.73
2023-03-13T02:02:52.460Z,17.05
2023-03-13T02:05:25.464Z,16.42
2023-03-13T02:08:06.595Z,19.35
2023-03-13T02:10:41.862Z,19.77
2023-03-13T02:13:10.867Z,16.65
2023-03-13T02:15:41.178Z,11.50
2023-03-13T02:18:09.797Z,19.92
2023-03-13T02:20:40.075Z,12.45
2023-03-13T02:23:39.170Z,13.55
2023-03-13T02:26:07.007Z,12.70
2023-03-13T02:28:39.185Z,15.63
2023-03-13T02:31:10.851Z,11.93
2023-03-13T02:33:42.139Z,13.05
2023-03-13T02:36:14.787Z,13.30
2023-03-13T02:39:06.413Z,11.05
2023-03-13T02:41:35.550Z,13.27
2023-03-13T02:44:02.562Z,12.00
2023-03-13T02:46:30.093Z,9.32
2023-03-13T02:48:57.381Z,6.93
2023-03-13T02:51:35.030Z,7.50
2023-03-13T02:54:12.052Z,10.98
2023-03-13T02:56:42.254Z,8.00
2023-03-13T02:59:11.000Z,7.30
2023-03-13T03:01:41.068Z,7.22
2023-03-13T03:04:08.166Z,10.60
2023-03-13T03:06:35.191Z,8.05
2023-03-13T03:09:05.567Z,9.25
2023-03-13T03:11:35.487Z,11.32
2023-03-13T03:14:07.703Z,6.60
2023-03-13T03:16:40.227Z,7.03
2023-03-13T03:19:08.210Z,9.05
2023-03-13T03:21:35.439Z,7.40
2023-03-13T03:24:06.378Z,9.00
2023-03-13T03:26:33.789Z,9.15
2023-03-13T03:29:01.525Z,8.27
2023-03-13T03:31:30.263Z,7.68
2023-03-13T03:33:57.774Z,9.30
2023-03-13T03:36:25.185Z,7.30
2023-03-13T03:38:52.540Z,7.22
2023-03-13T03:41:24.232Z,6.70
2023-03-13T03:43:51.255Z,8.85
2023-03-13T03:46:22.231Z,11.05
2023-03-13T03:48:49.521Z,6.78
2023-03-13T03:51:16.510Z,8.02
2023-03-13T03:53:46.801Z,4.82
2023-03-13T03:56:14.279Z,8.20
2023-03-13T03:58:51.770Z,5.38
2023-03-13T04:01:24.852Z,8.85
2023-03-13T04:03:52.367Z,6.07
2023-03-13T04:06:19.633Z,8.07
2023-03-13T04:08:47.912Z,5.53
2023-03-13T04:11:17.884Z,6.03
2023-03-13T04:13:49.803Z,7.57
2023-03-13T04:16:17.067Z,6.25
2023-03-13T04:18:45.334Z,5.50
2023-03-13T04:21:12.430Z,5.50
2023-03-13T04:23:47.090Z,4.68
2023-03-13T04:26:15.151Z,5.35
2023-03-13T04:28:43.024Z,6.20
2023-03-13T04:31:13.326Z,5.43
2023-03-13T04:34:03.582Z,7.15
2023-03-13T04:36:42.612Z,6.32
2023-03-13T04:39:09.555Z,5.90
2023-03-13T04:42:03.559Z,5.63
2023-03-13T04:44:48.717Z,7.07
2023-03-13T04:47:33.379Z,7.90
2023-03-13T04:50:32.429Z,10.15
2023-03-13T04:53:17.788Z,13.93
2023-03-13T04:56:24.728Z,6.75
2023-03-13T04:59:18.422Z,5.97
2023-03-13T05:01:57.446Z,7.13
2023-03-13T05:04:53.790Z,8.88
2023-03-13T05:07:39.210Z,8.52
2023-03-13T05:10:13.293Z,8.77
2023-03-13T05:13:12.555Z,10.25
2023-03-13T05:15:52.283Z,6.00
2023-03-13T05:18:39.284Z,7.82
2023-03-13T05:21:24.786Z,7.82
2023-03-13T05:24:00.296Z,6.68
2023-03-13T05:26:39.318Z,8.23
2023-03-13T05:29:24.999Z,8.82
2023-03-13T05:32:12.166Z,7.47
2023-03-13T05:34:55.834Z,9.02
2023-03-13T05:37:58.217Z,7.07
2023-03-13T05:40:32.563Z,6.78
2023-03-13T05:43:22.696Z,8.93
2023-03-13T05:46:08.226Z,6.35
2023-03-13T05:48:52.813Z,6.57
2023-03-13T05:51:52.141Z,8.52
2023-03-13T05:54:38.454Z,6.45
2023-03-13T05:57:24.190Z,6.43
2023-03-13T06:00:10.831Z,5.07
2023-03-13T06:02:45.002Z,5.20
2023-03-13T06:05:17.262Z,7.43
2023-03-13T06:07:45.569Z,9.13
2023-03-13T06:10:12.871Z,5.53
2023-03-13T06:12:39.881Z,5.53
2023-03-13T06:15:12.205Z,7.18
2023-03-13T06:17:59.652Z,4.72
2023-03-13T06:20:26.600Z,6.45
2023-03-13T06:22:53.533Z,5.78
2023-03-13T06:25:20.521Z,7.50
2023-03-13T06:27:47.350Z,4.47
2023-03-13T06:30:14.457Z,10.95
2023-03-13T06:32:41.553Z,7.88
2023-03-13T06:35:09.178Z,6.43
2023-03-13T06:37:36.229Z,6.65
2023-03-13T06:40:04.330Z,5.93
2023-03-13T06:42:31.384Z,4.85
2023-03-13T06:44:58.359Z,6.88
2023-03-13T06:47:25.299Z,6.30
2023-03-13T06:49:52.313Z,7.25
2023-03-13T06:52:20.292Z,8.43
2023-03-13T06:54:47.548Z,5.72
2023-03-13T06:57:14.492Z,6.15
2023-03-13T06:59:41.462Z,7.55
2023-03-13T07:02:12.269Z,4.72
2023-03-13T07:04:44.232Z,5.50
2023-03-13T07:07:25.603Z,7.95
2023-03-13T07:09:52.887Z,7.30
2023-03-13T07:12:19.812Z,6.68
2023-03-13T07:14:46.662Z,4.75
2023-03-13T07:17:13.615Z,4.30
2023-03-13T07:19:40.516Z,6.25
2023-03-13T07:22:07.410Z,5.00
2023-03-13T07:24:34.492Z,5.13
2023-03-13T07:27:07.089Z,6.82
2023-03-13T07:29:34.756Z,6.60
2023-03-13T07:32:01.903Z,5.10
2023-03-13T07:34:29.072Z,6.70
2023-03-13T07:36:56.093Z,9.10
2023-03-13T07:39:23.208Z,14.55
2023-03-13T07:41:50.051Z,6.00
2023-03-13T07:44:18.391Z,4.32
2023-03-13T07:46:48.405Z,7.97
2023-03-13T07:49:15.715Z,11.80
2023-03-13T07:51:44.372Z,8.07
2023-03-13T07:54:11.932Z,6.10
2023-03-13T07:56:39.023Z,6.25
2023-03-13T07:59:06.973Z,4.35
2023-03-13T08:01:34.126Z,9.13
2023-03-13T08:04:01.614Z,7.00
2023-03-13T08:06:33.980Z,6.40
2023-03-13T08:09:01.839Z,8.98
2023-03-13T08:11:29.385Z,7.57
2023-03-13T08:13:57.688Z,7.68
2023-03-13T08:16:31.566Z,7.43
2023-03-13T08:18:59.597Z,6.35
2023-03-13T08:21:31.290Z,5.50
2023-03-13T08:24:06.935Z,6.32
2023-03-13T08:26:38.024Z,6.07
2023-03-13T08:29:10.128Z,8.73
2023-03-13T08:31:47.905Z,7.20
2023-03-13T08:34:17.033Z,9.38
2023-03-13T08:36:44.618Z,5.78
2023-03-13T08:39:15.469Z,6.25
2023-03-13T08:41:43.537Z,6.25
2023-03-13T08:44:16.899Z,7.10
2023-03-13T08:46:44.858Z,8.07
2023-03-13T08:49:13.243Z,5.47
2023-03-13T08:51:40.808Z,6.63
2023-03-13T08:54:07.874Z,7.63
2023-03-13T08:56:35.095Z,3.90
2023-03-13T08:59:04.727Z,4.40
2023-03-13T09:01:35.256Z,7.05
2023-03-13T09:04:05.088Z,5.55
2023-03-13T09:06:34.246Z,8.70
2023-03-13T09:09:02.269Z,4.82
2023-03-13T09:11:30.072Z,4.95
2023-03-13T09:13:59.384Z,4.38
2023-03-13T09:16:30.906Z,6.45
2023-03-13T09:18:59.492Z,4.88
2023-03-13T09:21:33.115Z,8.70
2023-03-13T09:24:01.311Z,4.03
2023-03-13T09:26:29.327Z,3.25
2023-03-13T09:28:57.498Z,5.20
2023-03-13T09:31:29.820Z,6.78
2023-03-13T09:33:57.497Z,3.42
2023-03-13T09:36:25.563Z,4.72
2023-03-13T09:38:56.024Z,3.55
2023-03-13T09:41:38.637Z,3.55
2023-03-13T09:44:19.872Z,4.68
2023-03-13T09:47:06.062Z,5.50
2023-03-13T09:50:01.176Z,3.47
2023-03-13T09:52:41.014Z,5.43
2023-03-13T09:55:21.422Z,5.43
2023-03-13T09:57:56.021Z,4.97
2023-03-13T10:00:40.284Z,4.10
2023-03-13T10:03:29.465Z,4.15
2023-03-13T10:06:05.862Z,5.28
2023-03-13T10:08:35.552Z,3.03
2023-03-13T10:11:35.358Z,5.05
2023-03-13T10:14:26.747Z,4.55
2023-03-13T10:17:32.617Z,4.50
2023-03-13T10:20:22.452Z,4.65
2023-03-13T10:23:15.901Z,3.75
2023-03-13T10:25:42.903Z,4.22
2023-03-13T10:28:17.062Z,2.67
2023-03-13T10:33:25.922Z,3.55
2023-03-13T10:36:14.157Z,1.60
2023-03-13T10:38:53.940Z,6.95
2023-03-13T10:41:31.893Z,2.95
2023-03-13T10:44:04.657Z,3.05
2023-03-13T10:46:35.918Z,2.28
2023-03-13T10:49:24.351Z,3.47
2023-03-13T10:51:59.622Z,3.10
2023-03-13T10:54:37.949Z,3.05
2023-03-13T10:57:31.216Z,4.75
2023-03-13T10:59:59.795Z,4.30
2023-03-13T11:02:39.321Z,2.88
2023-03-13T11:05:30.563Z,3.35
2023-03-13T11:07:57.689Z,4.43
2023-03-13T11:10:30.060Z,2.33
2023-03-13T11:12:59.284Z,3.92
2023-03-13T11:15:39.477Z,4.10
2023-03-13T11:18:29.764Z,1.42
2023-03-13T11:21:08.708Z,1.90
2023-03-13T11:23:53.694Z,2.05
2023-03-13T11:26:39.007Z,1.95
2023-03-13T11:29:26.434Z,3.28
2023-03-13T11:32:16.453Z,3.28
2023-03-13T11:34:57.455Z,2.17
2023-03-13T11:37:31.246Z,5.43
2023-03-13T11:40:26.882Z,3.50
2023-03-13T11:43:25.139Z,1.48
2023-03-13T11:46:16.942Z,6.68
2023-03-13T11:49:06.882Z,2.55
2023-03-13T11:52:24.790Z,4.93
2023-03-13T11:55:29.815Z,2.25
2023-03-13T12:00:48.106Z,1.10
2023-03-13T12:03:32.875Z,4.20
2023-03-13T12:06:03.694Z,3.33
2023-03-13T12:08:42.756Z,7.82
2023-03-13T12:11:29.050Z,3.92
2023-03-13T12:14:11.627Z,6.65
2023-03-13T12:16:51.494Z,5.80
2023-03-13T12:19:30.780Z,4.38
2023-03-13T12:22:09.809Z,6.07
2023-03-13T12:24:50.214Z,11.10
2023-03-13T12:27:34.287Z,5.45
2023-03-13T12:30:27.576Z,2.92
2023-03-13T12:33:26.632Z,3.50
2023-03-13T12:36:07.929Z,6.43
2023-03-13T12:38:47.810Z,18.63
2023-03-13T12:41:43.155Z,3.13
2023-03-13T12:44:20.852Z,4.22
2023-03-13T12:47:07.238Z,2.63
2023-03-13T12:50:01.453Z,3.38
2023-03-13T12:53:19.057Z,3.08
2023-03-13T12:56:08.320Z,7.97
2023-03-13T12:58:49.379Z,2.72
2023-03-13T13:01:41.669Z,6.32
2023-03-13T13:04:17.572Z,5.28
2023-03-13T13:07:07.038Z,3.13
2023-03-13T13:09:39.760Z,8.48
2023-03-13T13:12:16.504Z,9.57
2023-03-13T13:14:49.687Z,15.90
2023-03-13T13:17:28.236Z,2.70
2023-03-13T13:19:57.260Z,2.65
2023-03-13T13:22:39.432Z,9.00
2023-03-13T13:25:35.702Z,4.78
2023-03-13T13:28:27.431Z,4.25
2023-03-13T13:30:56.718Z,7.43
2023-03-13T13:33:30.978Z,22.85
2023-03-13T13:38:41.077Z,8.38
2023-03-13T13:41:11.024Z,10.65
2023-03-13T13:43:47.799Z,11.85
2023-03-13T13:46:30.257Z,6.35
2023-03-13T13:49:15.617Z,13.75
2023-03-13T13:52:04.284Z,5.20
2023-03-13T13:54:47.422Z,3.80
2023-03-13T13:57:23.893Z,6.60
2023-03-13T14:00:15.718Z,8.15
2023-03-13T14:02:55.776Z,3.20
2023-03-13T14:05:31.910Z,7.10
2023-03-13T14:08:14.078Z,17.13
2023-03-13T14:10:46.925Z,9.82
2023-03-13T14:13:20.686Z,35.90
2023-03-13T14:15:57.229Z,10.18
2023-03-13T14:18:30.491Z,11.23
2023-03-13T14:21:13.826Z,21.03
2023-03-13T14:23:46.652Z,3.40
2023-03-13T14:26:27.478Z,12.32
2023-03-13T14:29:02.844Z,7.93
2023-03-13T14:31:37.895Z,5.57
2023-03-13T14:34:09.062Z,9.68
2023-03-13T14:37:07.365Z,4.15
2023-03-13T14:39:46.498Z,2.45
2023-03-13T14:42:18.277Z,9.07
2023-03-13T14:44:50.050Z,12.25
2023-03-13T14:47:27.421Z,8.82
2023-03-13T14:50:14.836Z,16.63
2023-03-13T14:52:49.881Z,5.75
2023-03-13T14:55:23.001Z,4.93
2023-03-13T14:58:23.719Z,10.52
2023-03-13T15:00:51.210Z,12.55
2023-03-13T15:03:20.085Z,7.43
2023-03-13T15:06:09.638Z,4.20
2023-03-13T15:08:43.368Z,2.88
2023-03-13T15:11:30.478Z,5.15
2023-03-13T15:13:58.229Z,7.80
2023-03-13T15:16:27.965Z,3.42
2023-03-13T15:18:56.974Z,6.90
2023-03-13T15:21:32.954Z,3.97
2023-03-13T15:24:11.269Z,5.80
2023-03-13T15:26:38.255Z,4.30
2023-03-13T15:29:05.242Z,7.10
2023-03-13T15:31:32.538Z,2.70
2023-03-13T15:34:01.794Z,3.55
2023-03-13T15:36:31.660Z,14.50
2023-03-13T15:38:58.719Z,6.35
2023-03-13T15:41:25.863Z,8.30
2023-03-13T15:43:52.953Z,5.30
2023-03-13T15:46:20.606Z,5.22
2023-03-13T15:48:48.371Z,8.88
2023-03-13T15:51:17.245Z,2.83
2023-03-13T15:53:46.264Z,4.07
2023-03-13T15:56:20.454Z,6.90
2023-03-13T15:58:49.092Z,6.43
2023-03-13T16:01:18.101Z,3.80
2023-03-13T16:03:45.296Z,4.05
2023-03-13T16:06:20.725Z,3.78
2023-03-13T16:08:47.925Z,3.13
2023-03-13T16:11:17.331Z,3.67
2023-03-13T16:13:44.394Z,4.15
2023-03-13T16:16:20.379Z,5.15
2023-03-13T16:18:49.642Z,4.43
2023-03-13T16:21:29.835Z,3.08
2023-03-13T16:23:57.624Z,6.55
2023-03-13T16:26:29.749Z,5.18
2023-03-13T16:28:58.136Z,2.42
2023-03-13T16:31:32.094Z,7.50
2023-03-13T16:36:31.732Z,5.70
2023-03-13T16:39:01.995Z,5.93
2023-03-13T16:41:30.412Z,8.75
2023-03-13T16:43:58.672Z,3.67
2023-03-13T16:46:36.239Z,5.35
2023-03-13T16:49:04.122Z,5.97
2023-03-13T16:51:32.443Z,3.78
2023-03-13T16:54:03.692Z,5.22
2023-03-13T16:56:37.860Z,4.20
2023-03-13T17:01:36.444Z,5.28
2023-03-13T17:04:03.584Z,7.00
2023-03-13T17:06:41.376Z,4.28
2023-03-13T17:09:16.692Z,7.38
2023-03-13T17:11:44.832Z,4.82
2023-03-13T17:14:13.549Z,5.35
2023-03-13T17:16:44.672Z,8.63
2023-03-13T17:19:16.858Z,4.97
2023-03-13T17:21:44.370Z,4.30
2023-03-13T17:24:11.494Z,4.95
2023-03-13T17:26:40.429Z,5.85
2023-03-13T17:29:14.318Z,3.78
2023-03-13T17:31:41.687Z,5.22
2023-03-13T17:34:09.778Z,4.75
2023-03-13T17:36:37.905Z,6.28
2023-03-13T17:39:08.795Z,6.40
2023-03-13T17:41:37.084Z,5.95
2023-03-13T17:44:04.383Z,4.07
2023-03-13T17:46:43.394Z,3.80
2023-03-13T17:49:17.529Z,4.97
2023-03-13T17:51:46.295Z,4.38
2023-03-13T17:54:15.738Z,5.10
2023-03-13T17:56:43.972Z,6.30
2023-03-13T17:59:18.283Z,6.18
2023-03-13T18:01:46.179Z,9.25
2023-03-13T18:04:13.670Z,8.75
2023-03-13T18:06:45.988Z,6.20
2023-03-13T18:09:21.503Z,4.53
2023-03-13T18:11:49.489Z,7.15
2023-03-13T18:14:16.834Z,5.90
2023-03-13T18:16:47.921Z,6.75
2023-03-13T18:19:22.829Z,10.65
2023-03-13T18:21:55.295Z,5.55
2023-03-13T18:24:23.101Z,7.22
2023-03-13T18:26:50.918Z,4.00
2023-03-13T18:29:26.975Z,3.95
2023-03-13T18:31:58.631Z,7.43
2023-03-13T18:34:27.044Z,3.80
2023-03-13T18:36:55.199Z,4.65
2023-03-13T18:39:22.356Z,3.70
2023-03-13T18:41:52.283Z,7.63
2023-03-13T18:44:20.923Z,6.78
2023-03-13T18:46:48.151Z,11.68
2023-03-13T18:49:20.487Z,7.20
2023-03-13T18:51:49.822Z,5.25
2023-03-13T18:54:17.628Z,7.65
2023-03-13T18:56:47.319Z,5.90
2023-03-13T18:59:20.865Z,5.38
2023-03-13T19:01:49.029Z,7.05
2023-03-13T19:04:17.350Z,5.72
2023-03-13T19:06:45.954Z,6.03
2023-03-13T19:09:48.744Z,4.20
2023-03-13T19:12:06.746Z,5.60
2023-03-13T19:14:33.949Z,7.20
2023-03-13T19:17:01.086Z,5.93
2023-03-13T19:19:28.745Z,6.88
2023-03-13T19:21:56.354Z,5.93
2023-03-13T19:24:26.655Z,6.15
2023-03-13T19:26:58.975Z,6.35
2023-03-13T19:29:28.443Z,7.40
2023-03-13T19:31:55.928Z,7.15
2023-03-13T19:34:23.366Z,5.47
2023-03-13T19:36:53.256Z,8.50
2023-03-13T19:39:25.170Z,8.80
2023-03-13T19:41:54.109Z,5.63
2023-03-13T19:44:22.335Z,6.45
2023-03-13T19:46:49.633Z,6.05
2023-03-13T19:49:19.873Z,7.63
2023-03-13T19:51:47.911Z,6.13
2023-03-13T19:54:15.626Z,10.65
2023-03-13T19:56:45.903Z,6.85
2023-03-13T19:59:19.883Z,10.55
2023-03-13T20:01:47.197Z,5.28
2023-03-13T20:04:15.551Z,7.60
2023-03-13T20:06:43.992Z,6.85
2023-03-13T20:09:17.380Z,6.97
2023-03-13T20:11:45.230Z,6.95
2023-03-13T20:14:12.542Z,5.80
2023-03-13T20:16:39.856Z,6.68
2023-03-13T20:19:07.035Z,9.43
2023-03-13T20:21:37.626Z,7.95
2023-03-13T20:24:05.061Z,7.55
2023-03-13T20:26:32.131Z,6.50
2023-03-13T20:28:59.142Z,6.47
2023-03-13T20:31:30.219Z,9.13
2023-03-13T20:33:58.627Z,8.75
2023-03-13T20:36:26.812Z,8.15
2023-03-13T20:38:53.889Z,6.38
2023-03-13T20:41:24.800Z,8.45
2023-03-13T20:43:52.935Z,7.63
2023-03-13T20:46:21.227Z,9.32
2023-03-13T20:48:49.177Z,7.25
2023-03-13T20:51:16.900Z,6.22
2023-03-13T20:53:44.284Z,7.85
2023-03-13T20:56:11.850Z,8.15
2023-03-13T20:58:39.299Z,7.75
2023-03-13T21:01:08.178Z,8.52
2023-03-13T21:03:36.365Z,7.95
2023-03-13T21:06:15.864Z,7.65
2023-03-13T21:08:44.126Z,9.75
2023-03-13T21:11:20.156Z,8.05
2023-03-13T21:13:48.427Z,7.63
2023-03-13T21:16:16.484Z,6.93
2023-03-13T21:18:43.683Z,12.52
2023-03-13T21:21:17.091Z,7.82
2023-03-13T21:23:45.717Z,8.40
2023-03-13T21:26:14.368Z,8.88
2023-03-13T21:28:41.358Z,9.27
2023-03-13T21:31:16.058Z,7.18
2023-03-13T21:33:44.886Z,6.38
2023-03-13T21:36:14.995Z,4.45
2023-03-13T21:38:43.022Z,6.00
2023-03-13T21:41:14.142Z,7.50
2023-03-13T21:43:42.372Z,7.43
2023-03-13T21:46:16.214Z,7.65
2023-03-13T21:51:13.351Z,14.20
2023-03-13T21:53:42.085Z,9.73
2023-03-13T21:56:15.049Z,12.98
2023-03-13T21:58:44.058Z,11.05
2023-03-13T22:01:12.262Z,6.45
2023-03-13T22:03:39.683Z,7.28
2023-03-13T22:06:15.552Z,6.10
2023-03-13T22:08:42.989Z,5.60
2023-03-13T22:11:10.068Z,6.28
2023-03-13T22:13:37.166Z,5.85
2023-03-13T22:16:04.602Z,8.85
2023-03-13T22:18:32.094Z,5.22
2023-03-13T22:21:00.338Z,6.32
2023-03-13T22:23:27.572Z,5.90
2023-03-13T22:25:57.624Z,7.68
2023-03-13T22:28:25.546Z,8.57
2023-03-13T22:30:52.821Z,9.43
2023-03-13T22:33:20.184Z,8.13
2023-03-13T22:35:52.522Z,11.18
2023-03-13T22:38:21.102Z,7.57
2023-03-13T22:40:56.265Z,8.07
2023-03-13T22:43:23.282Z,8.23
2023-03-13T22:45:50.604Z,7.68
2023-03-13T22:48:17.721Z,6.40
2023-03-13T22:50:44.729Z,8.52
2023-03-13T22:53:12.118Z,8.48
2023-03-13T22:55:39.084Z,7.25
2023-03-13T22:58:06.089Z,5.20
2023-03-13T23:00:33.105Z,6.65
2023-03-13T23:03:00.100Z,6.63
2023-03-13T23:05:27.059Z,9.52
2023-03-13T23:07:54.058Z,5.35
2023-03-13T23:10:21.173Z,7.07
2023-03-13T23:12:48.193Z,5.90
2023-03-13T23:15:15.188Z,3.25
2023-03-13T23:17:42.163Z,6.13
2023-03-13T23:20:13.359Z,6.20
2023-03-13T23:22:46.517Z,7.43
2023-03-13T23:25:14.304Z,7.38
2023-03-13T23:27:42.400Z,6.30
2023-03-13T23:30:14.343Z,6.97
2023-03-13T23:32:45.521Z,10.40
2023-03-13T23:35:13.348Z,6.45
2023-03-13T23:37:40.370Z,6.53
2023-03-13T23:40:10.426Z,6.70
2023-03-13T23:42:37.672Z,8.05
2023-03-13T23:45:06.442Z,6.45
2023-03-13T23:47:33.921Z,5.80
2023-03-13T23:50:00.938Z,6.50
2023-03-13T23:52:27.930Z,5.65
2023-03-13T23:54:55.171Z,10.57
2023-03-13T23:57:22.522Z,8.20
2023-03-13T23:59:49.969Z,8.10
